Time;durP1;ratioP1;P1;durP2;ratioP2;P2;SDS_P1;SDS_P2;PMS_P1;PMS_P2;Temp;Humidity;BMP_temperature;BMP_pressure;BME280_temperature;BME280_humidity;BME280_pressure;Samples;Min_cycle;Max_cycle;Signal;HPM_P1;HPM_P2
2022/04/15 00:00:20;;;;;;;12.60;9.13;;;;;;;8.73;100.00;101583.59;686568;28;1287;-77
2022/04/15 00:00:42;;;;;;;11.93;8.68;;;;;;;8.89;100.00;101605.63;684149;28;1392;-77
2022/04/15 00:01:03;;;;;;;10.30;8.38;;;;;;;8.91;100.00;101566.53;687934;28;1436;-76
2022/04/15 00:01:27;;;;;;;10.60;8.50;;;;;;;8.88;100.00;101580.38;685844;28;4895;-77
2022/04/15 00:01:47;;;;;;;10.43;8.63;;;;;;;8.83;100.00;101575.09;683630;28;1495;-77
2022/04/15 00:02:09;;;;;;;10.70;9.05;;;;;;;8.77;100.00;101580.19;683100;28;1010;-77
2022/04/15 00:02:30;;;;;;;11.77;9.32;;;;;;;8.77;100.00;101592.34;676265;28;4302;-77
2022/04/15 00:02:53;;;;;;;12.27;9.38;;;;;;;8.70;100.00;101586.16;686996;28;1117;-77
2022/04/15 00:03:17;;;;;;;12.25;9.30;;;;;;;8.71;100.00;101600.06;687884;28;1369;-77
2022/04/15 00:03:39;;;;;;;10.55;8.80;;;;;;;8.72;100.00;101607.03;684660;28;1181;-77
2022/04/15 00:03:59;;;;;;;9.93;8.68;;;;;;;8.71;100.00;101589.63;682036;28;1631;-77
2022/04/15 00:04:27;;;;;;;10.85;9.15;;;;;;;8.60;100.00;101585.13;684570;28;1355;-77
2022/04/15 00:04:48;;;;;;;11.45;9.32;;;;;;;8.58;100.00;101562.47;685980;28;1517;-76
2022/04/15 00:05:51;;;;;;;11.07;9.18;;;;;;;8.53;100.00;101567.63;681716;28;6442;-77
2022/04/15 00:06:12;;;;;;;11.70;9.60;;;;;;;8.46;100.00;101571.84;680336;28;1110;-77
2022/04/15 00:06:33;;;;;;;12.80;10.07;;;;;;;8.42;100.00;101567.38;679092;28;1284;-77
2022/04/15 00:06:53;;;;;;;11.70;9.90;;;;;;;8.40;100.00;101576.88;682777;28;817;-77
2022/04/15 00:07:17;;;;;;;11.00;9.60;;;;;;;8.36;100.00;101572.47;682731;28;1117;-77
2022/04/15 00:07:41;;;;;;;12.43;9.80;;;;;;;8.36;100.00;101569.84;683688;28;1161;-77
2022/04/15 00:08:05;;;;;;;12.50;9.77;;;;;;;8.34;100.00;101582.84;683607;28;1197;-77
2022/04/15 00:08:26;;;;;;;12.40;10.00;;;;;;;8.30;100.00;101588.00;680996;28;4302;-77
2022/04/15 00:08:47;;;;;;;12.83;9.47;;;;;;;8.27;100.00;101567.09;679497;28;3572;-77
2022/04/15 00:09:08;;;;;;;11.95;9.95;;;;;;;8.25;100.00;101584.41;675943;29;1465;-77
2022/04/15 00:09:30;;;;;;;11.48;9.77;;;;;;;8.30;100.00;101564.53;680352;28;1202;-77
2022/04/15 00:09:53;;;;;;;12.93;9.80;;;;;;;8.30;100.00;101559.34;679687;28;1439;-77
2022/04/15 00:10:17;;;;;;;12.70;9.60;;;;;;;8.25;100.00;101573.97;687210;28;1585;-77
2022/04/15 00:10:45;;;;;;;12.98;10.00;;;;;;;8.24;100.00;101567.00;684936;28;1514;-78
2022/04/15 00:11:05;;;;;;;11.63;9.68;;;;;;;8.15;100.00;101565.97;687283;28;1291;-77
2022/04/15 00:11:28;;;;;;;11.55;9.57;;;;;;;8.15;100.00;101599.84;686527;28;4298;-77
2022/04/15 00:11:49;;;;;;;11.80;9.50;;;;;;;8.26;100.00;101574.00;687618;28;1517;-77
2022/04/15 00:12:17;;;;;;;11.32;9.38;;;;;;;8.26;100.00;101586.16;686150;28;1373;-77
2022/04/15 00:12:39;;;;;;;11.05;9.48;;;;;;;8.19;100.00;101588.63;684683;28;1518;-77
2022/04/15 00:13:01;;;;;;;10.35;9.25;;;;;;;8.13;100.00;101559.88;682596;28;1279;-77
2022/04/15 00:13:24;;;;;;;11.27;9.20;;;;;;;8.08;100.00;101587.56;679822;28;1350;-77
2022/04/15 00:13:45;;;;;;;12.10;9.50;;;;;;;8.01;100.00;101575.25;676816;29;1115;-77
2022/04/15 00:14:06;;;;;;;12.85;9.80;;;;;;;8.01;100.00;101565.72;678839;28;1401;-77
2022/04/15 00:14:27;;;;;;;12.67;9.43;;;;;;;8.03;100.00;101576.19;679210;28;4316;-77
2022/04/15 00:14:55;;;;;;;12.63;9.90;;;;;;;7.99;100.00;101574.38;680900;28;1422;-77
2022/04/15 00:15:15;;;;;;;11.05;9.55;;;;;;;7.98;100.00;101585.63;683732;28;1295;-77
2022/04/15 00:15:36;;;;;;;11.18;9.40;;;;;;;8.05;100.00;101561.44;685229;28;1482;-77
2022/04/15 00:15:56;;;;;;;10.97;9.50;;;;;;;8.02;100.00;101567.47;685919;28;1491;-77
2022/04/15 00:16:16;;;;;;;11.60;9.70;;;;;;;8.00;100.00;101558.78;683303;28;1340;-77
2022/04/15 00:16:37;;;;;;;12.37;9.90;;;;;;;8.02;100.00;101561.41;681266;28;1324;-76
2022/04/15 00:16:57;;;;;;;13.37;10.10;;;;;;;8.05;100.00;101565.78;680824;28;1113;-76
2022/04/15 00:17:18;;;;;;;12.10;9.77;;;;;;;8.03;100.00;101568.38;682369;28;1469;-76
2022/04/15 00:17:38;;;;;;;12.45;9.70;;;;;;;8.06;100.00;101562.31;681192;28;4359;-77
2022/04/15 00:17:59;;;;;;;11.00;9.67;;;;;;;8.08;100.00;101566.72;681599;28;1612;-76
2022/04/15 00:18:19;;;;;;;11.75;9.55;;;;;;;8.10;100.00;101566.75;681829;28;1341;-77
2022/04/15 00:18:41;;;;;;;11.63;9.40;;;;;;;8.08;100.00;101566.72;685419;28;1601;-77
2022/04/15 00:19:02;;;;;;;11.52;9.43;;;;;;;8.09;100.00;101565.00;684801;28;1881;-77
2022/04/15 00:19:23;;;;;;;12.50;9.38;;;;;;;8.06;100.00;101565.81;686028;28;1358;-77
2022/04/15 00:19:46;;;;;;;12.82;9.77;;;;;;;8.10;100.00;101566.75;686074;28;1280;-77
2022/04/15 00:20:07;;;;;;;11.13;9.25;;;;;;;8.15;100.00;101567.72;683331;28;1393;-77
2022/04/15 00:20:27;;;;;;;10.40;9.30;;;;;;;8.15;100.00;101573.78;680630;28;4381;-77
2022/04/15 00:20:48;;;;;;;11.50;9.30;;;;;;;8.15;100.00;101568.59;679820;28;1590;-77
2022/04/15 00:21:08;;;;;;;11.17;9.33;;;;;;;8.12;100.00;101565.94;678352;29;1610;-76
2022/04/15 00:21:28;;;;;;;11.37;9.37;;;;;;;8.21;100.00;101577.38;677718;29;1969;-77
2022/04/15 00:21:50;;;;;;;11.02;9.35;;;;;;;8.24;100.00;101559.19;677188;28;1372;-77
2022/04/15 00:22:10;;;;;;;11.55;9.30;;;;;;;8.19;100.00;101559.97;681165;28;1404;-76
2022/04/15 00:22:30;;;;;;;12.27;9.95;;;;;;;8.19;100.00;101569.53;685330;28;1535;-76
2022/04/15 00:22:52;;;;;;;12.07;9.37;;;;;;;8.22;100.00;101568.72;687429;28;1250;-76
2022/04/15 00:23:13;;;;;;;11.35;9.57;;;;;;;8.19;100.00;101559.97;686020;28;1556;-77
2022/04/15 00:23:34;;;;;;;11.95;9.23;;;;;;;8.20;100.00;101558.28;684108;28;4294;-77
2022/04/15 00:23:56;;;;;;;11.68;8.90;;;;;;;8.19;100.00;101564.31;684307;28;1613;-77
2022/04/15 00:24:16;;;;;;;11.80;9.20;;;;;;;8.13;100.00;101565.09;682986;28;1284;-77
2022/04/15 00:24:37;;;;;;;10.93;9.10;;;;;;;8.11;100.00;101561.59;681005;28;1303;-76
2022/04/15 00:24:57;;;;;;;10.50;9.05;;;;;;;8.10;100.00;101562.44;680058;28;1465;-77
2022/04/15 00:25:17;;;;;;;11.40;9.40;;;;;;;8.08;100.00;101566.72;684230;28;1626;-77
2022/04/15 00:25:38;;;;;;;11.63;9.37;;;;;;;8.08;100.00;101571.06;683338;28;1465;-76
2022/04/15 00:25:59;;;;;;;11.98;9.75;;;;;;;8.05;100.00;101561.44;683772;28;1593;-77
2022/04/15 00:26:19;;;;;;;13.52;9.88;;;;;;;8.05;100.00;101561.44;685052;28;1507;-77
2022/04/15 00:26:40;;;;;;;11.87;9.63;;;;;;;8.00;100.00;101563.06;681850;28;4302;-77
2022/04/15 00:27:00;;;;;;;11.20;9.30;;;;;;;7.98;100.00;101565.66;679414;28;1589;-77
2022/04/15 00:27:21;;;;;;;11.90;9.50;;;;;;;7.93;100.00;101580.28;679419;29;1387;-77
2022/04/15 00:27:41;;;;;;;11.40;9.50;;;;;;;7.90;100.00;101564.63;676438;29;1430;-77
2022/04/15 00:28:02;;;;;;;12.63;9.63;;;;;;;7.90;100.00;101562.00;680257;28;1477;-77
2022/04/15 00:28:23;;;;;;;12.13;9.70;;;;;;;7.91;100.00;101560.31;681263;28;1972;-77
2022/04/15 00:28:43;;;;;;;11.38;9.95;;;;;;;7.90;100.00;101567.22;679532;28;1655;-76
2022/04/15 00:29:06;;;;;;;13.37;10.20;;;;;;;7.90;100.00;101567.22;681122;28;1355;-77
2022/04/15 00:29:28;;;;;;;12.13;10.00;;;;;;;7.89;100.00;101575.00;683269;28;4399;-76
2022/04/15 00:29:48;;;;;;;13.02;9.55;;;;;;;7.89;100.00;101559.38;682255;28;1512;-76
2022/04/15 00:30:09;;;;;;;12.67;9.80;;;;;;;7.87;100.00;101561.97;680197;28;1584;-77
2022/04/15 00:30:30;;;;;;;13.10;10.18;;;;;;;7.84;100.00;101557.56;680292;28;1432;-77
2022/04/15 00:30:50;;;;;;;14.02;10.02;;;;;;;7.84;100.00;101556.69;679449;28;1336;-77
2022/04/15 00:31:11;;;;;;;12.47;9.70;;;;;;;7.83;100.00;101560.13;679079;28;1357;-77
2022/04/15 00:31:31;;;;;;;12.00;9.93;;;;;;;7.84;100.00;101562.78;677639;28;1318;-77
2022/04/15 00:31:51;;;;;;;11.87;9.60;;;;;;;7.90;100.00;101566.34;682022;28;1274;-76
2022/04/15 00:32:12;;;;;;;10.82;8.90;;;;;;;7.95;100.00;101559.53;684227;28;1169;-77
2022/04/15 00:32:33;;;;;;;11.57;9.00;;;;;;;7.99;100.00;101566.56;686679;28;4323;-78
2022/04/15 00:32:53;;;;;;;12.70;9.15;;;;;;;7.94;100.00;101565.56;681951;28;1221;-76
2022/04/15 00:33:14;;;;;;;11.20;9.43;;;;;;;7.92;100.00;101556.84;681869;28;1408;-77
2022/04/15 00:33:34;;;;;;;11.95;9.70;;;;;;;7.87;100.00;101566.31;686518;28;1127;-76
2022/04/15 00:33:55;;;;;;;13.82;10.32;;;;;;;7.83;100.00;101566.22;683988;28;1357;-77
2022/04/15 00:34:15;;;;;;;12.97;9.73;;;;;;;7.84;100.00;101567.09;682860;28;1203;-77
2022/04/15 00:34:36;;;;;;;13.47;9.70;;;;;;;7.80;100.00;101563.56;678720;28;1374;-77
2022/04/15 00:34:56;;;;;;;11.47;9.97;;;;;;;7.81;100.00;101561.84;680529;28;1240;-77
2022/04/15 00:35:17;;;;;;;11.35;9.73;;;;;;;7.80;100.00;101555.75;682044;28;1369;-77
2022/04/15 00:35:37;;;;;;;10.97;9.57;;;;;;;7.81;100.00;101564.44;685463;28;4321;-76
2022/04/15 00:35:57;;;;;;;10.80;9.48;;;;;;;7.77;100.00;101568.69;687085;28;1451;-77
2022/04/15 00:36:18;;;;;;;12.27;9.90;;;;;;;7.74;100.00;101567.75;686483;28;1061;-77
2022/04/15 00:36:38;;;;;;;12.38;10.05;;;;;;;7.71;100.00;101563.34;685949;28;1359;-77
2022/04/15 00:36:58;;;;;;;12.70;10.03;;;;;;;7.64;100.00;101561.47;684071;28;1377;-77
2022/04/15 00:37:19;;;;;;;13.07;10.15;;;;;;;7.60;100.00;101564.84;683612;28;1160;-77
2022/04/15 00:37:39;;;;;;;12.33;9.70;;;;;;;7.57;100.00;101562.19;687742;28;1243;-76
2022/04/15 00:38:00;;;;;;;12.03;9.80;;;;;;;7.57;100.00;101559.56;683875;28;1300;-76
2022/04/15 00:38:23;;;;;;;12.48;9.60;;;;;;;7.54;100.00;101562.13;685423;28;5229;-77
2022/04/15 00:38:43;;;;;;;12.57;10.30;;;;;;;7.54;100.00;101564.72;683801;28;2000;-76
2022/04/15 00:39:03;;;;;;;13.47;10.40;;;;;;;7.53;100.00;101576.84;684194;28;1334;-77
2022/04/15 00:39:23;;;;;;;11.30;9.77;;;;;;;7.54;100.00;101565.59;685076;28;998;-77
2022/04/15 00:39:46;;;;;;;11.37;9.73;;;;;;;7.53;100.00;101566.44;682112;28;1358;-76
2022/04/15 00:40:09;;;;;;;11.63;9.68;;;;;;;7.55;100.00;101569.09;682310;28;1383;-77
2022/04/15 00:40:30;;;;;;;11.35;9.32;;;;;;;7.60;100.00;101578.75;683353;28;970;-76
2022/04/15 00:40:51;;;;;;;10.68;9.40;;;;;;;7.72;100.00;101565.09;685818;28;1394;-77
2022/04/15 00:41:17;;;;;;;11.57;9.55;;;;;;;7.74;100.00;101570.34;685384;28;1605;-77
2022/04/15 00:41:42;;;;;;;11.75;9.73;;;;;;;7.72;100.00;101566.84;687118;28;5154;-77
2022/04/15 00:42:02;;;;;;;12.20;9.60;;;;;;;7.74;100.00;101570.34;689303;28;1866;-77
2022/04/15 00:42:23;;;;;;;11.63;9.43;;;;;;;7.72;100.00;101575.53;691132;28;1533;-76
2022/04/15 00:42:43;;;;;;;11.35;9.35;;;;;;;7.73;100.00;101569.47;690714;28;1242;-77
2022/04/15 00:43:04;;;;;;;13.38;9.70;;;;;;;7.72;100.00;101575.53;690302;28;1232;-77
2022/04/15 00:43:24;;;;;;;12.90;9.73;;;;;;;7.74;100.00;101571.25;690865;28;1029;-76
2022/04/15 00:43:45;;;;;;;11.43;9.90;;;;;;;7.76;100.00;101579.94;688566;28;1517;-77
2022/04/15 00:44:06;;;;;;;11.60;9.40;;;;;;;7.78;100.00;101565.25;689245;28;1685;-76
2022/04/15 00:44:27;;;;;;;12.35;9.38;;;;;;;7.77;100.00;101571.31;689647;28;4300;-77
2022/04/15 00:44:48;;;;;;;11.57;9.37;;;;;;;7.77;100.00;101570.44;686776;28;1590;-77
2022/04/15 00:45:09;;;;;;;10.82;9.45;;;;;;;7.77;100.00;101571.31;684938;28;1247;-76
2022/04/15 00:45:30;;;;;;;11.63;9.82;;;;;;;7.76;100.00;101569.53;684580;28;1845;-77
2022/04/15 00:45:50;;;;;;;11.70;9.53;;;;;;;7.76;100.00;101579.94;681454;28;1502;-77
2022/04/15 00:46:11;;;;;;;11.05;9.30;;;;;;;7.76;100.00;101574.75;680707;28;1036;-77
2022/04/15 00:46:31;;;;;;;12.20;8.88;;;;;;;7.76;100.00;101574.75;681146;28;962;-76
2022/04/15 00:46:52;;;;;;;12.93;9.37;;;;;;;7.75;100.00;101578.19;681119;28;1062;-76
2022/04/15 00:47:22;;;;;;;10.97;9.20;;;;;;;7.71;100.00;101571.16;681388;28;1639;-77
2022/04/15 00:47:51;;;;;;;12.45;9.20;;;;;;;7.68;100.00;101576.28;681440;28;5001;-76
2022/04/15 00:48:13;;;;;;;11.05;9.10;;;;;;;7.63;100.00;101573.59;675229;29;1355;-77
2022/04/15 00:48:35;;;;;;;10.98;8.90;;;;;;;7.61;100.00;101580.47;679487;29;1299;-77
2022/04/15 00:48:56;;;;;;;12.05;9.60;;;;;;;7.57;100.00;101578.66;678095;28;1313;-77
2022/04/15 00:49:16;;;;;;;11.77;9.33;;;;;;;7.54;100.00;101569.94;678640;28;1387;-77
2022/04/15 00:49:37;;;;;;;11.25;9.35;;;;;;;7.55;100.00;101577.75;677823;28;1501;-77
2022/04/15 00:49:57;;;;;;;11.87;9.60;;;;;;;7.55;100.00;101580.38;681204;28;1459;-77
2022/04/15 00:50:19;;;;;;;12.10;9.30;;;;;;;7.55;100.00;101579.50;681005;28;1311;-77
2022/04/15 00:50:40;;;;;;;11.48;9.30;;;;;;;7.58;100.00;101579.56;683673;28;4320;-77
2022/04/15 00:51:00;;;;;;;10.82;9.48;;;;;;;7.63;100.00;101581.41;683408;28;1558;-77
2022/04/15 00:51:21;;;;;;;11.67;9.60;;;;;;;7.70;100.00;101579.84;682420;28;1141;-76
2022/04/15 00:51:43;;;;;;;11.18;8.85;;;;;;;7.78;100.00;101580.88;685006;28;1490;-77
2022/04/15 00:52:06;;;;;;;9.77;8.60;;;;;;;7.79;100.00;101580.00;684863;28;1344;-77
2022/04/15 00:52:33;;;;;;;10.95;8.75;;;;;;;7.74;100.00;101592.06;684233;28;1225;-77
2022/04/15 00:52:58;;;;;;;11.95;8.82;;;;;;;7.71;100.00;101584.16;688107;28;1167;-76
2022/04/15 00:53:22;;;;;;;11.50;8.65;;;;;;;7.67;100.00;101574.56;689955;28;1028;-77
2022/04/15 00:53:45;;;;;;;12.13;9.10;;;;;;;7.66;100.00;101575.41;683530;28;4695;-76
2022/04/15 00:54:07;;;;;;;13.02;8.98;;;;;;;7.66;100.00;101589.28;684209;28;1441;-77
2022/04/15 00:54:29;;;;;;;13.05;9.50;;;;;;;7.67;100.00;101578.03;684796;28;1874;-77
2022/04/15 00:54:53;;;;;;;13.05;9.52;;;;;;;7.69;100.00;101583.28;682314;28;1325;-77
2022/04/15 00:55:16;;;;;;;12.40;8.88;;;;;;;7.63;100.00;101577.94;683151;28;1240;-77
2022/04/15 00:55:38;;;;;;;11.57;8.85;;;;;;;7.55;100.00;101575.16;686441;28;1880;-77
2022/04/15 00:56:05;;;;;;;10.82;8.98;;;;;;;7.53;100.00;101575.97;687118;28;1619;-77
2022/04/15 00:56:29;;;;;;;12.82;9.25;;;;;;;7.52;100.00;101582.00;685951;28;4288;-77
2022/04/15 00:56:52;;;;;;;11.60;8.95;;;;;;;7.58;100.00;101582.16;684963;28;1519;-77
2022/04/15 00:57:16;;;;;;;11.50;8.80;;;;;;;7.59;100.00;101576.13;686143;28;1433;-77
2022/04/15 00:57:41;;;;;;;11.15;8.73;;;;;;;7.56;100.00;101578.63;686140;28;1657;-77
2022/04/15 00:58:04;;;;;;;11.55;9.30;;;;;;;7.49;100.00;101581.09;687915;28;1539;-77
2022/04/15 00:58:25;;;;;;;11.43;9.27;;;;;;;7.45;100.00;101581.00;683192;28;1505;-77
2022/04/15 00:58:47;;;;;;;11.45;9.30;;;;;;;7.44;100.00;101576.66;681997;28;1562;-77
2022/04/15 00:59:09;;;;;;;13.55;9.82;;;;;;;7.44;100.00;101579.25;681306;28;1508;-77
2022/04/15 00:59:31;;;;;;;11.68;9.40;;;;;;;7.46;100.00;101581.03;682874;28;4373;-76
2022/04/15 00:59:54;;;;;;;11.50;9.40;;;;;;;7.50;100.00;101581.97;685823;28;1516;-76
2022/04/15 01:00:15;;;;;;;11.52;9.00;;;;;;;7.53;100.00;101581.16;689119;28;1581;-77
2022/04/15 01:00:37;;;;;;;11.93;9.18;;;;;;;7.49;100.00;101583.72;685436;28;1433;-77
2022/04/15 01:00:58;;;;;;;10.85;9.48;;;;;;;7.50;100.00;101577.66;680262;28;1248;-77
2022/04/15 01:01:19;;;;;;;12.60;9.45;;;;;;;7.48;100.00;101574.13;679022;28;4770;-77
2022/04/15 01:01:42;;;;;;;11.80;9.30;;;;;;;7.45;100.00;101579.28;682440;28;1950;-77
2022/04/15 01:02:03;;;;;;;11.82;9.65;;;;;;;7.43;100.00;101580.94;681859;28;1727;-77
2022/04/15 01:02:28;;;;;;;12.05;9.35;;;;;;;7.45;100.00;101589.69;680855;28;4289;-77
2022/04/15 01:02:49;;;;;;;10.75;8.60;;;;;;;7.50;100.00;101585.47;683244;28;2093;-77
2022/04/15 01:03:10;;;;;;;9.98;8.57;;;;;;;7.55;100.00;101580.38;686273;28;1485;-77
2022/04/15 01:03:31;;;;;;;11.10;8.90;;;;;;;7.60;100.00;101588.25;689245;28;1528;-76
2022/04/15 01:03:53;;;;;;;10.90;8.90;;;;;;;7.58;100.00;101584.75;689662;28;1704;-77
2022/04/15 01:04:17;;;;;;;10.82;9.32;;;;;;;7.52;100.00;101587.22;687527;28;1743;-77
2022/04/15 01:04:42;;;;;;;10.93;9.38;;;;;;;7.43;100.00;101588.75;684124;28;1583;-77
2022/04/15 01:05:05;;;;;;;12.00;9.32;;;;;;;7.39;100.00;101593.88;683076;28;3715;-78
2022/04/15 01:05:27;;;;;;;11.95;9.48;;;;;;;7.37;100.00;101583.44;682030;28;4290;-77
2022/04/15 01:05:49;;;;;;;11.77;9.05;;;;;;;7.41;100.00;101585.25;682352;28;1102;-77
2022/04/15 01:06:11;;;;;;;10.75;8.68;;;;;;;7.44;100.00;101587.06;682846;28;1488;-76
2022/04/15 01:06:33;;;;;;;10.70;9.02;;;;;;;7.47;100.00;101590.59;682403;28;1645;-77
2022/04/15 01:06:54;;;;;;;10.93;8.88;;;;;;;7.50;100.00;101588.06;683616;28;1105;-76
2022/04/15 01:07:19;;;;;;;10.23;8.65;;;;;;;7.49;100.00;101586.31;685466;28;1406;-77
2022/04/15 01:07:47;;;;;;;10.25;8.95;;;;;;;7.42;100.00;101592.22;682462;28;1398;-76
2022/04/15 01:08:12;;;;;;;11.95;9.38;;;;;;;7.40;100.00;101587.81;683901;28;1367;-77
2022/04/15 01:08:37;;;;;;;11.93;9.70;;;;;;;7.36;100.00;101589.47;679813;28;4297;-77
2022/04/15 01:08:58;;;;;;;13.65;9.82;;;;;;;7.32;100.00;101592.84;680853;28;1556;-76
2022/04/15 01:09:22;;;;;;;12.70;10.00;;;;;;;7.30;100.00;101599.75;684687;28;1284;-76
2022/04/15 01:09:44;;;;;;;11.88;10.18;;;;;;;7.31;100.00;101591.06;678834;28;1548;-76
2022/04/15 01:10:07;;;;;;;11.63;9.48;;;;;;;7.38;100.00;101590.41;678554;28;1522;-77
2022/04/15 01:10:28;;;;;;;11.77;9.32;;;;;;;7.45;100.00;101594.88;679712;29;1269;-76
2022/04/15 01:10:52;;;;;;;11.77;9.90;;;;;;;7.44;100.00;101581.84;679115;28;1508;-77
2022/04/15 01:11:17;;;;;;;11.98;9.82;;;;;;;7.44;100.00;101592.25;676132;29;1641;-76
2022/04/15 01:11:43;;;;;;;11.93;9.60;;;;;;;7.45;100.00;101597.50;682357;28;4304;-76
2022/04/15 01:12:06;;;;;;;10.98;9.48;;;;;;;7.46;100.00;101591.44;682280;28;1592;-77
2022/04/15 01:12:28;;;;;;;12.88;9.65;;;;;;;7.45;100.00;101599.22;682089;28;1441;-77
2022/04/15 01:12:53;;;;;;;12.88;9.50;;;;;;;7.36;100.00;101599.88;684867;28;1429;-77
2022/04/15 01:13:14;;;;;;;11.77;9.57;;;;;;;7.31;100.00;101597.16;681999;28;1637;-77
2022/04/15 01:13:36;;;;;;;12.80;9.77;;;;;;;7.33;100.00;101589.41;682382;28;1577;-76
2022/04/15 01:14:00;;;;;;;12.90;10.05;;;;;;;7.37;100.00;101595.56;682390;28;1159;-76
2022/04/15 01:14:24;;;;;;;12.88;10.15;;;;;;;7.36;100.00;101597.28;680063;28;4306;-77
2022/04/15 01:14:47;;;;;;;13.38;10.25;;;;;;;7.32;100.00;101592.84;682826;28;1535;-76
2022/04/15 01:15:10;;;;;;;12.48;10.00;;;;;;;7.28;100.00;101599.72;682344;28;1417;-77
2022/04/15 01:15:32;;;;;;;13.30;10.18;;;;;;;7.30;100.00;101599.75;685288;28;1753;-77
2022/04/15 01:15:55;;;;;;;12.60;9.85;;;;;;;7.30;100.00;101602.34;685356;28;1324;-77
2022/04/15 01:16:16;;;;;;;12.60;9.93;;;;;;;7.30;100.00;101600.59;687263;28;1607;-77
2022/04/15 01:16:38;;;;;;;12.25;9.73;;;;;;;7.36;100.00;101594.66;686070;28;1191;-77
2022/04/15 01:16:58;;;;;;;11.93;9.68;;;;;;;7.36;100.00;101594.66;685119;28;1438;-77
2022/04/15 01:17:19;;;;;;;11.37;9.70;;;;;;;7.38;100.00;101597.31;684640;28;1761;-77
2022/04/15 01:17:40;;;;;;;12.00;9.20;;;;;;;7.37;100.00;101599.03;679038;28;4275;-77
2022/04/15 01:18:00;;;;;;;12.88;9.77;;;;;;;7.39;100.00;101599.94;683496;28;1561;-76
2022/04/15 01:18:22;;;;;;;13.30;9.60;;;;;;;7.35;100.00;101600.72;684024;28;1789;-76
2022/04/15 01:18:42;;;;;;;11.85;9.52;;;;;;;7.31;100.00;101597.16;681340;28;1303;-76
2022/04/15 01:19:03;;;;;;;11.77;9.40;;;;;;;7.32;100.00;101598.94;682063;28;1390;-76
2022/04/15 01:19:23;;;;;;;12.75;9.52;;;;;;;7.31;100.00;101604.06;683773;28;1515;-77
2022/04/15 01:19:44;;;;;;;11.77;9.70;;;;;;;7.31;100.00;101597.16;683351;28;1401;-77
2022/04/15 01:20:08;;;;;;;11.87;9.83;;;;;;;7.29;100.00;101597.97;681026;28;1782;-76
2022/04/15 01:20:29;;;;;;;12.75;9.95;;;;;;;7.27;100.00;101603.16;679116;28;4295;-77
2022/04/15 01:20:52;;;;;;;13.35;9.90;;;;;;;7.27;100.00;101602.25;681630;28;1872;-77
2022/04/15 01:21:14;;;;;;;12.45;9.80;;;;;;;7.26;100.00;101598.78;679319;28;1631;-76
2022/04/15 01:21:37;;;;;;;12.77;10.00;;;;;;;7.25;100.00;101596.13;682975;28;1915;-77
2022/04/15 01:22:02;;;;;;;13.10;10.07;;;;;;;7.26;100.00;101603.13;675879;28;1436;-77
2022/04/15 01:22:24;;;;;;;12.45;9.93;;;;;;;7.27;100.00;101597.03;675856;29;1917;-77
2022/04/15 01:22:47;;;;;;;12.88;10.32;;;;;;;7.23;100.00;101603.03;677226;28;1623;-77
2022/04/15 01:23:11;;;;;;;12.98;10.63;;;;;;;7.20;100.00;101602.94;680503;28;1332;-77
2022/04/15 01:23:31;;;;;;;13.35;10.60;;;;;;;7.15;100.00;101598.50;680092;28;4426;-76
2022/04/15 01:23:53;;;;;;;13.88;10.23;;;;;;;7.16;100.00;101602.88;679003;28;1672;-77
2022/04/15 01:24:14;;;;;;;12.52;10.55;;;;;;;7.14;100.00;101601.97;680372;28;1643;-76
2022/04/15 01:24:38;;;;;;;13.40;10.67;;;;;;;7.15;100.00;101610.66;678825;28;1193;-77
2022/04/15 01:24:58;;;;;;;12.70;10.48;;;;;;;7.11;100.00;101603.63;678659;28;1513;-76
2022/04/15 01:25:19;;;;;;;13.13;10.27;;;;;;;7.12;100.00;101606.25;678185;28;1822;-77
2022/04/15 01:25:39;;;;;;;12.73;10.13;;;;;;;7.09;100.00;101600.97;683912;28;1343;-77
2022/04/15 01:25:59;;;;;;;12.00;10.70;;;;;;;7.08;100.00;101607.00;683369;28;1638;-77
2022/04/15 01:26:20;;;;;;;12.23;10.90;;;;;;;7.07;100.00;101606.97;687621;28;1628;-77
2022/04/15 01:26:40;;;;;;;12.95;10.68;;;;;;;7.00;100.00;101598.13;690334;28;4351;-77
2022/04/15 01:27:01;;;;;;;11.60;10.30;;;;;;;6.95;100.00;101605.84;690877;28;1349;-76
2022/04/15 01:27:26;;;;;;;12.52;11.15;;;;;;;6.95;100.00;101602.34;692005;28;1357;-76
2022/04/15 01:27:48;;;;;;;13.65;11.15;;;;;;;6.94;100.00;101606.66;689758;28;1454;-77
2022/04/15 01:28:09;;;;;;;13.00;10.90;;;;;;;6.92;100.00;101602.25;690001;28;1624;-77
2022/04/15 01:28:30;;;;;;;13.02;10.98;;;;;;;6.95;100.00;101602.34;690534;28;1508;-77
2022/04/15 01:28:50;;;;;;;12.73;11.05;;;;;;;6.95;100.00;101607.53;688856;28;1196;-76
2022/04/15 01:29:10;;;;;;;13.73;11.13;;;;;;;6.94;100.00;101604.06;688493;28;1557;-77
2022/04/15 01:29:38;;;;;;;14.77;11.07;;;;;;;6.94;100.00;101609.28;687125;28;4515;-77
2022/04/15 01:29:58;;;;;;;14.40;11.23;;;;;;;6.96;100.00;101604.09;687125;28;1215;-76
2022/04/15 01:30:20;;;;;;;13.43;11.38;;;;;;;6.95;100.00;101608.44;684957;28;1469;-76
2022/04/15 01:30:41;;;;;;;13.65;11.50;;;;;;;6.97;100.00;101604.13;683592;28;1338;-76
2022/04/15 01:31:01;;;;;;;13.88;11.00;;;;;;;6.97;100.00;101609.34;678849;29;1757;-76
2022/04/15 01:31:22;;;;;;;13.93;10.87;;;;;;;6.95;100.00;101610.13;678193;28;2015;-76
2022/04/15 01:31:42;;;;;;;14.60;11.35;;;;;;;6.93;100.00;101604.03;681640;28;1568;-77
2022/04/15 01:32:07;;;;;;;15.10;11.57;;;;;;;6.91;100.00;101609.19;681859;28;1936;-77
2022/04/15 01:32:28;;;;;;;13.73;11.13;;;;;;;6.92;100.00;101610.06;680183;28;4301;-77
2022/04/15 01:32:49;;;;;;;13.77;11.38;;;;;;;6.91;100.00;101604.00;684034;28;1421;-76
2022/04/15 01:33:10;;;;;;;14.13;11.55;;;;;;;6.91;100.00;101608.28;684663;28;1613;-76
2022/04/15 01:33:30;;;;;;;13.40;10.60;;;;;;;6.95;100.00;101612.72;685431;28;1555;-77
2022/04/15 01:33:50;;;;;;;13.63;11.00;;;;;;;6.98;100.00;101607.63;682731;28;1296;-76
2022/04/15 01:34:11;;;;;;;13.85;11.50;;;;;;;6.99;100.00;101606.78;685317;28;1216;-77
2022/04/15 01:34:32;;;;;;;14.27;11.60;;;;;;;7.03;100.00;101611.22;685428;28;1601;-77
2022/04/15 01:34:52;;;;;;;13.50;11.48;;;;;;;7.04;100.00;101605.19;685469;28;1682;-77
2022/04/15 01:35:14;;;;;;;13.85;11.43;;;;;;;7.07;100.00;101607.84;688716;28;1322;-76
2022/04/15 01:35:35;;;;;;;12.55;10.70;;;;;;;7.10;100.00;101610.53;684741;28;4304;-76
2022/04/15 01:35:55;;;;;;;12.20;10.40;;;;;;;7.15;100.00;101608.03;690375;28;1682;-77
2022/04/15 01:36:16;;;;;;;12.50;10.43;;;;;;;7.16;100.00;101610.69;686828;28;1576;-77
2022/04/15 01:36:39;;;;;;;12.70;10.50;;;;;;;7.16;100.00;101610.69;683700;28;1421;-76
2022/04/15 01:37:00;;;;;;;13.80;11.38;;;;;;;7.15;100.00;101611.50;685760;28;1553;-76
2022/04/15 01:37:23;;;;;;;12.88;10.93;;;;;;;7.16;100.00;101605.47;681826;28;1498;-77
2022/04/15 01:37:45;;;;;;;13.43;10.98;;;;;;;7.23;100.00;101629.06;681992;28;1647;-77
2022/04/15 01:38:10;;;;;;;13.18;10.65;;;;;;;7.29;100.00;101614.44;680127;28;1344;-76
2022/04/15 01:38:33;;;;;;;14.15;10.85;;;;;;;7.28;100.00;101622.22;677238;28;4348;-77
2022/04/15 01:38:57;;;;;;;13.80;11.02;;;;;;;7.22;100.00;101609.06;678293;29;1483;-77
2022/04/15 01:39:18;;;;;;;15.10;11.25;;;;;;;7.19;100.00;101616.81;681497;28;1540;-77
2022/04/15 01:39:39;;;;;;;13.07;11.13;;;;;;;7.14;100.00;101612.38;681007;28;1347;-77
2022/04/15 01:39:59;;;;;;;12.85;10.77;;;;;;;7.18;100.00;101610.72;683175;28;1596;-77
2022/04/15 01:40:20;;;;;;;13.50;10.27;;;;;;;7.26;100.00;101611.78;682267;28;1297;-77
2022/04/15 01:40:42;;;;;;;12.97;10.30;;;;;;;7.29;100.00;101603.19;683660;28;1792;-77
2022/04/15 01:41:02;;;;;;;13.15;10.40;;;;;;;7.30;100.00;101602.34;684537;28;1885;-76
2022/04/15 01:41:23;;;;;;;14.23;10.70;;;;;;;7.29;100.00;101605.78;681700;28;4336;-76
2022/04/15 01:41:44;;;;;;;13.00;10.93;;;;;;;7.26;100.00;101618.72;681938;28;1930;-76
2022/04/15 01:42:05;;;;;;;13.00;10.73;;;;;;;7.22;100.00;101637.69;683540;28;1446;-77
2022/04/15 01:42:25;;;;;;;12.33;10.40;;;;;;;7.20;100.00;101605.53;681866;28;1178;-76
2022/04/15 01:42:47;;;;;;;13.77;10.18;;;;;;;7.22;100.00;101601.28;683871;28;1375;-77
2022/04/15 01:43:07;;;;;;;12.27;10.38;;;;;;;7.25;100.00;101628.22;683991;28;1232;-76